createdAt,value
2024-04-30T00:01:37.196Z,2.53
2024-04-30T00:04:13.986Z,2.53
2024-04-30T00:06:47.411Z,2.17
2024-04-30T00:09:20.553Z,2.40
2024-04-30T00:12:01.796Z,2.30
2024-04-30T00:14:55.640Z,2.72
2024-04-30T00:17:31.385Z,2.63
2024-04-30T00:20:05.231Z,2.40
2024-04-30T00:22:38.479Z,2.97
2024-04-30T00:25:11.662Z,2.40
2024-04-30T00:27:47.099Z,2.47
2024-04-30T00:30:20.334Z,2.80
2024-04-30T00:32:56.821Z,2.40
2024-04-30T00:35:32.535Z,2.88
2024-04-30T00:38:05.653Z,2.83
2024-04-30T00:40:38.912Z,2.22
2024-04-30T00:43:12.381Z,2.53
2024-04-30T00:45:49.256Z,3.08
2024-04-30T00:48:39.284Z,2.78
2024-04-30T00:51:23.192Z,3.30
2024-04-30T00:54:06.143Z,3.07
2024-04-30T00:56:46.995Z,2.80
2024-04-30T00:59:30.367Z,3.53
2024-04-30T01:02:10.079Z,2.88
2024-04-30T01:08:17.604Z,3.03
2024-04-30T01:10:53.448Z,2.55
2024-04-30T01:13:33.186Z,2.88
2024-04-30T01:16:07.938Z,2.70
2024-04-30T01:18:41.368Z,3.20
2024-04-30T01:22:08.368Z,2.83
2024-04-30T01:24:46.986Z,2.70
2024-04-30T01:27:29.323Z,2.90
2024-04-30T01:30:04.159Z,2.78
2024-04-30T01:32:47.727Z,2.92
2024-04-30T01:35:24.084Z,2.85
2024-04-30T01:37:57.339Z,3.20
2024-04-30T01:40:33.051Z,3.42
2024-04-30T01:43:10.821Z,3.25
2024-04-30T01:46:31.312Z,3.50
2024-04-30T01:49:34.856Z,3.75
2024-04-30T01:52:33.802Z,4.20
2024-04-30T01:55:16.908Z,3.63
2024-04-30T01:58:03.440Z,3.85
2024-04-30T02:02:21.272Z,3.80
2024-04-30T02:04:53.974Z,4.28
2024-04-30T02:08:02.686Z,4.40
2024-04-30T02:10:45.329Z,4.70
2024-04-30T02:13:18.710Z,4.88
2024-04-30T02:16:01.708Z,5.82
2024-04-30T02:18:46.592Z,5.43
2024-04-30T02:24:45.326Z,5.57
2024-04-30T02:27:28.399Z,5.80
2024-04-30T02:30:04.786Z,6.18
2024-04-30T02:33:20.595Z,5.93
2024-04-30T02:37:12.638Z,6.57
2024-04-30T02:47:01.514Z,6.85
2024-04-30T02:49:50.484Z,6.60
2024-04-30T02:52:54.150Z,5.75
2024-04-30T02:55:33.751Z,6.18
2024-04-30T02:58:07.070Z,6.50
2024-04-30T03:00:40.781Z,6.07
2024-04-30T03:03:28.634Z,6.55
2024-04-30T03:09:03.272Z,6.30
2024-04-30T03:11:45.745Z,6.25
2024-04-30T03:14:24.197Z,6.90
2024-04-30T03:16:59.980Z,7.05
2024-04-30T03:20:01.715Z,6.57
2024-04-30T03:22:48.353Z,7.15
2024-04-30T03:26:13.109Z,6.68
2024-04-30T03:28:50.057Z,6.85
2024-04-30T03:31:29.972Z,6.90
2024-04-30T03:34:19.460Z,7.05
2024-04-30T03:37:00.739Z,6.88
2024-04-30T03:39:48.667Z,7.45
2024-04-30T03:42:28.024Z,6.97
2024-04-30T03:45:15.950Z,6.88
2024-04-30T03:48:18.806Z,6.72
2024-04-30T03:50:55.521Z,7.05
2024-04-30T03:53:38.829Z,7.05
2024-04-30T03:56:23.531Z,7.32
2024-04-30T03:59:04.839Z,7.78
2024-04-30T04:02:28.927Z,7.05
2024-04-30T04:04:51.506Z,6.93
2024-04-30T04:07:26.216Z,7.22
2024-04-30T04:10:14.212Z,7.15
2024-04-30T04:14:09.771Z,6.97
2024-04-30T04:17:07.300Z,6.63
2024-04-30T04:19:52.548Z,6.68
2024-04-30T04:22:40.043Z,7.32
2024-04-30T04:25:13.364Z,6.78
2024-04-30T04:27:46.610Z,6.47
2024-04-30T04:30:20.805Z,7.35
2024-04-30T04:32:54.007Z,6.47
2024-04-30T04:35:27.272Z,6.20
2024-04-30T04:38:00.263Z,6.53
2024-04-30T04:40:33.663Z,6.95
2024-04-30T04:43:09.644Z,6.63
2024-04-30T04:45:43.090Z,6.40
2024-04-30T04:48:16.399Z,6.82
2024-04-30T04:50:49.626Z,6.20
2024-04-30T04:53:22.618Z,6.78
2024-04-30T04:55:55.730Z,6.47
2024-04-30T04:58:30.028Z,6.35
2024-04-30T05:01:03.243Z,6.80
2024-04-30T05:03:56.726Z,6.55
2024-04-30T05:06:29.854Z,6.38
2024-04-30T05:09:05.690Z,6.70
2024-04-30T05:11:38.716Z,6.03
2024-04-30T05:14:11.957Z,6.78
2024-04-30T05:16:45.212Z,6.82
2024-04-30T05:19:20.824Z,6.45
2024-04-30T05:21:53.812Z,6.38
2024-04-30T05:24:29.453Z,7.18
2024-04-30T05:27:03.034Z,7.28
2024-04-30T05:29:39.306Z,6.50
2024-04-30T05:32:12.436Z,6.40
2024-04-30T05:34:50.113Z,7.05
2024-04-30T05:37:23.259Z,6.55
2024-04-30T05:39:56.552Z,6.53
2024-04-30T05:42:29.763Z,6.80
2024-04-30T05:45:03.398Z,7.00
2024-04-30T05:47:36.732Z,6.70
2024-04-30T05:50:09.924Z,7.05
2024-04-30T05:52:45.672Z,6.60
2024-04-30T05:55:18.864Z,6.43
2024-04-30T05:57:52.146Z,6.72
2024-04-30T06:00:25.284Z,6.47
2024-04-30T06:03:03.794Z,5.97
2024-04-30T06:05:37.472Z,6.25
2024-04-30T06:08:10.624Z,6.00
2024-04-30T06:10:43.848Z,6.28
2024-04-30T06:13:17.045Z,7.20
2024-04-30T06:15:50.213Z,6.35
2024-04-30T06:18:23.505Z,6.25
2024-04-30T06:20:56.673Z,5.85
2024-04-30T06:23:29.967Z,6.38
2024-04-30T06:26:04.785Z,5.40
2024-04-30T06:28:42.054Z,5.50
2024-04-30T06:31:27.908Z,5.50
2024-04-30T06:34:19.821Z,5.50
2024-04-30T06:37:07.877Z,5.40
2024-04-30T06:39:43.832Z,5.13
2024-04-30T06:42:18.014Z,5.00
2024-04-30T06:44:51.226Z,5.10
2024-04-30T06:48:15.225Z,5.22
2024-04-30T06:50:58.616Z,5.35
2024-04-30T07:02:18.971Z,4.57
2024-04-30T08:19:41.687Z,0.90
2024-04-30T08:22:31.256Z,1.08
2024-04-30T08:25:04.747Z,0.93
2024-04-30T08:27:40.693Z,0.70
2024-04-30T08:30:27.198Z,0.80
2024-04-30T08:33:00.882Z,0.80
2024-04-30T08:35:34.127Z,0.70
2024-04-30T10:22:19.679Z,1.10
2024-04-30T10:24:52.608Z,1.33
2024-04-30T10:27:25.583Z,0.93
2024-04-30T10:29:59.168Z,1.07
2024-04-30T10:32:32.642Z,1.13
2024-04-30T10:35:06.364Z,1.00
2024-04-30T10:37:39.684Z,1.20
2024-04-30T10:40:35.573Z,1.15
2024-04-30T10:43:20.319Z,0.70
2024-04-30T10:45:53.453Z,0.80
2024-04-30T10:48:27.304Z,1.00
2024-04-30T10:51:01.355Z,0.93
2024-04-30T10:53:34.463Z,1.10
2024-04-30T10:56:08.169Z,1.08
2024-04-30T10:59:01.739Z,0.98
2024-04-30T11:01:34.863Z,1.00
2024-04-30T11:04:27.427Z,1.00
2024-04-30T11:07:00.809Z,1.30
2024-04-30T11:10:01.484Z,1.25
2024-04-30T11:12:34.648Z,1.00
2024-04-30T13:57:10.303Z,1.30
2024-04-30T13:59:44.326Z,1.48
2024-04-30T14:02:18.470Z,1.60
2024-04-30T14:04:51.563Z,1.73
2024-04-30T14:07:24.569Z,1.25
2024-04-30T14:09:57.386Z,1.42
2024-04-30T14:12:30.295Z,1.40
2024-04-30T14:15:03.495Z,1.73
2024-04-30T14:17:36.927Z,1.23
2024-04-30T14:20:10.326Z,1.48
2024-04-30T14:22:43.421Z,1.35
2024-04-30T14:25:16.450Z,1.27
2024-04-30T14:27:49.297Z,1.40
2024-04-30T14:30:22.123Z,1.42
2024-04-30T14:32:55.038Z,1.60
2024-04-30T14:35:53.379Z,1.60
2024-04-30T14:38:26.776Z,1.30
2024-04-30T14:40:59.516Z,1.52
2024-04-30T14:43:32.301Z,1.67
2024-04-30T14:46:07.006Z,1.73
2024-04-30T14:48:43.132Z,2.00
2024-04-30T14:51:16.870Z,1.70
2024-04-30T14:53:49.975Z,1.40
2024-04-30T14:56:22.759Z,1.92
2024-04-30T14:58:55.662Z,1.98
2024-04-30T15:01:28.601Z,1.70
2024-04-30T15:04:01.578Z,1.55
2024-04-30T15:06:34.514Z,1.63
2024-04-30T15:09:11.031Z,1.70
2024-04-30T15:11:43.891Z,1.75
2024-04-30T15:14:16.729Z,2.33
2024-04-30T15:16:49.755Z,1.70
2024-04-30T15:19:22.788Z,1.63
2024-04-30T15:21:57.203Z,1.45
2024-04-30T15:24:30.109Z,1.45
2024-04-30T15:27:03.375Z,1.58
2024-04-30T15:29:36.140Z,1.90
2024-04-30T15:32:08.957Z,1.40
2024-04-30T15:34:46.382Z,1.50
2024-04-30T15:37:20.395Z,1.80
2024-04-30T15:39:53.232Z,1.55
2024-04-30T15:42:26.010Z,1.50
2024-04-30T15:44:58.762Z,1.60
2024-04-30T15:47:31.584Z,2.07
2024-04-30T15:50:04.654Z,1.50
2024-04-30T15:52:37.473Z,2.00
2024-04-30T15:55:10.343Z,1.60
2024-04-30T15:57:43.228Z,2.00
2024-04-30T16:00:16.441Z,1.87
2024-04-30T16:02:51.186Z,2.05
2024-04-30T16:05:24.360Z,2.13
2024-04-30T16:07:57.135Z,1.70
2024-04-30T16:10:30.074Z,1.30
2024-04-30T16:13:02.895Z,1.58
2024-04-30T16:15:35.725Z,1.60
2024-04-30T16:18:10.168Z,2.13
2024-04-30T16:20:43.103Z,1.70
2024-04-30T16:23:15.934Z,1.40
2024-04-30T16:25:48.894Z,1.50
2024-04-30T16:28:25.310Z,1.85
2024-04-30T16:30:58.103Z,1.20
2024-04-30T16:33:31.093Z,1.50
2024-04-30T16:36:04.788Z,1.70
2024-04-30T16:41:15.584Z,1.60
2024-04-30T16:43:48.452Z,1.52
2024-04-30T16:46:47.835Z,1.50
2024-04-30T16:49:20.839Z,1.98
2024-04-30T16:51:53.658Z,1.87
2024-04-30T16:54:29.042Z,1.60
2024-04-30T16:57:01.883Z,1.77
2024-04-30T16:59:35.339Z,1.73
2024-04-30T17:02:11.287Z,1.98
2024-04-30T17:04:44.915Z,1.50
2024-04-30T17:07:17.870Z,1.47
2024-04-30T17:09:50.815Z,1.50
2024-04-30T17:12:23.750Z,1.97
2024-04-30T17:14:56.517Z,1.83
2024-04-30T17:17:29.706Z,1.73
2024-04-30T17:20:04.678Z,1.52
2024-04-30T17:22:37.634Z,1.80
2024-04-30T17:25:10.402Z,1.80
2024-04-30T17:27:46.153Z,1.83
2024-04-30T17:30:19.297Z,1.40
2024-04-30T17:32:52.419Z,1.70
2024-04-30T17:35:35.831Z,1.70
2024-04-30T17:38:14.459Z,2.00
2024-04-30T17:40:47.490Z,1.65
2024-04-30T17:43:20.610Z,2.13
2024-04-30T17:45:53.983Z,1.75
2024-04-30T17:48:27.190Z,1.90
2024-04-30T17:51:00.361Z,1.63
2024-04-30T17:53:33.385Z,1.80
2024-04-30T17:56:07.241Z,1.80
2024-04-30T17:58:44.044Z,2.08
2024-04-30T18:01:19.283Z,1.90
2024-04-30T18:03:54.609Z,1.80
2024-04-30T18:09:03.058Z,2.05
2024-04-30T18:11:36.110Z,1.70
2024-04-30T18:14:09.607Z,2.03
2024-04-30T18:16:45.734Z,2.28
2024-04-30T18:19:19.083Z,2.03
2024-04-30T18:21:53.351Z,2.47
2024-04-30T18:24:26.731Z,1.83
2024-04-30T18:27:00.210Z,2.00
2024-04-30T18:29:33.262Z,2.17
2024-04-30T18:32:09.283Z,2.60
2024-04-30T18:34:44.622Z,2.10
